createdAt,value
2022-11-28T00:02:07.753Z,7.80
2022-11-28T00:05:11.748Z,7.69
2022-11-28T00:08:13.822Z,8.12
2022-11-28T00:11:16.297Z,7.95
2022-11-28T00:14:18.894Z,8.36
2022-11-28T00:17:21.029Z,8.26
2022-11-28T00:20:23.089Z,8.17
2022-11-28T00:23:25.111Z,7.72
2022-11-28T00:26:45.392Z,8.17
2022-11-28T00:29:47.484Z,8.07
2022-11-28T00:32:49.518Z,8.11
2022-11-28T00:35:51.755Z,8.02
2022-11-28T00:38:53.918Z,7.73
2022-11-28T00:41:56.019Z,7.64
2022-11-28T00:44:58.073Z,7.69
2022-11-28T00:48:00.335Z,7.45
2022-11-28T00:51:29.174Z,7.49
2022-11-28T00:54:31.245Z,7.23
2022-11-28T00:57:33.387Z,7.10
2022-11-28T01:00:35.606Z,7.37
2022-11-28T01:03:38.155Z,6.81
2022-11-28T01:06:58.423Z,6.85
2022-11-28T01:10:00.573Z,6.94
2022-11-28T01:13:02.968Z,6.81
2022-11-28T01:16:05.290Z,6.83
2022-11-28T01:19:07.748Z,7.01
2022-11-28T01:22:09.797Z,6.87
2022-11-28T01:25:11.960Z,6.92
2022-11-28T01:28:13.996Z,6.90
2022-11-28T01:31:23.411Z,6.78
2022-11-28T01:34:25.521Z,6.64
2022-11-28T01:37:30.176Z,6.61
2022-11-28T01:40:32.468Z,6.63
2022-11-28T01:43:35.312Z,6.62
2022-11-28T01:46:37.537Z,6.70
2022-11-28T01:49:40.073Z,6.54
2022-11-28T01:52:44.997Z,6.42
2022-11-28T01:56:02.240Z,6.54
2022-11-28T01:59:05.168Z,6.67
2022-11-28T02:02:13.612Z,6.57
2022-11-28T02:05:17.317Z,7.26
2022-11-28T02:08:19.428Z,7.28
2022-11-28T02:12:11.536Z,7.10
2022-11-28T02:15:28.682Z,7.13
2022-11-28T02:18:50.327Z,7.42
2022-11-28T02:22:07.488Z,7.29
2022-11-28T02:25:47.747Z,7.48
2022-11-28T02:29:15.733Z,7.10
2022-11-28T02:33:00.761Z,7.12
2022-11-28T02:36:20.399Z,7.34
2022-11-28T02:39:51.041Z,7.27
2022-11-28T02:43:02.178Z,7.06
2022-11-28T02:46:26.910Z,6.78
2022-11-28T02:49:31.679Z,6.75
2022-11-28T02:52:40.486Z,6.92
2022-11-28T02:55:43.354Z,7.02
2022-11-28T02:58:45.385Z,7.06
2022-11-28T03:01:47.476Z,7.27
2022-11-28T03:05:24.621Z,7.38
2022-11-28T03:08:47.144Z,7.43
2022-11-28T03:12:08.497Z,7.49
2022-11-28T03:15:10.628Z,7.65
2022-11-28T03:18:25.053Z,7.49
2022-11-28T03:21:40.945Z,7.50
2022-11-28T03:25:06.645Z,6.95
2022-11-28T03:28:19.728Z,7.28
2022-11-28T03:32:00.548Z,7.54
2022-11-28T03:35:18.596Z,7.08
2022-11-28T03:38:29.437Z,7.04
2022-11-28T03:41:54.889Z,7.31
2022-11-28T03:45:11.312Z,7.32
2022-11-28T03:48:47.947Z,7.59
2022-11-28T03:51:55.333Z,7.83
2022-11-28T03:55:29.483Z,7.44
2022-11-28T03:58:37.912Z,7.22
2022-11-28T04:01:57.893Z,6.82
2022-11-28T04:05:17.451Z,6.46
2022-11-28T04:08:32.041Z,6.34
2022-11-28T04:11:40.608Z,6.51
2022-11-28T04:14:51.842Z,6.57
2022-11-28T04:18:13.245Z,7.19
2022-11-28T04:21:20.425Z,6.92
2022-11-28T04:24:27.206Z,6.76
2022-11-28T04:27:33.400Z,7.03
2022-11-28T04:30:35.437Z,6.82
2022-11-28T04:33:41.008Z,6.70
2022-11-28T04:36:44.878Z,6.93
2022-11-28T04:39:48.100Z,7.04
2022-11-28T04:43:06.540Z,6.85
2022-11-28T04:46:13.645Z,6.53
2022-11-28T04:49:15.708Z,6.40
2022-11-28T04:52:39.245Z,6.52
2022-11-28T04:55:46.669Z,6.68
2022-11-28T04:58:49.518Z,6.71
2022-11-28T05:01:51.587Z,6.71
2022-11-28T05:04:55.718Z,6.28
2022-11-28T05:07:59.073Z,6.30
2022-11-28T05:11:01.209Z,6.23
2022-11-28T05:14:03.271Z,6.54
2022-11-28T05:17:05.294Z,6.59
2022-11-28T05:20:08.148Z,6.87
2022-11-28T05:23:10.163Z,6.55
2022-11-28T05:26:20.724Z,6.75
2022-11-28T05:29:24.871Z,6.75
2022-11-28T05:35:33.332Z,6.58
2022-11-28T05:38:35.412Z,6.36
2022-11-28T05:41:37.475Z,6.56
2022-11-28T05:44:39.613Z,6.83
2022-11-28T05:47:41.674Z,6.72
2022-11-28T05:50:43.800Z,6.82
2022-11-28T05:53:45.892Z,6.50
2022-11-28T05:56:47.947Z,6.25
2022-11-28T05:59:49.997Z,6.22
2022-11-28T06:02:53.328Z,6.26
2022-11-28T06:05:57.012Z,6.17
2022-11-28T06:08:59.172Z,6.17
2022-11-28T06:12:01.248Z,5.76
2022-11-28T06:15:03.485Z,6.31
2022-11-28T06:18:05.999Z,6.45
2022-11-28T06:21:09.335Z,6.21
2022-11-28T06:24:11.450Z,5.98
2022-11-28T06:27:13.480Z,6.40
2022-11-28T06:30:15.605Z,6.16
2022-11-28T06:33:17.848Z,6.78
2022-11-28T06:36:20.214Z,6.16
2022-11-28T06:39:22.300Z,5.80
2022-11-28T06:42:24.331Z,5.97
2022-11-28T06:45:26.425Z,5.88
2022-11-28T06:48:28.497Z,5.67
2022-11-28T06:51:30.562Z,5.58
2022-11-28T06:54:32.741Z,5.93
2022-11-28T06:57:35.700Z,6.04
2022-11-28T07:00:37.887Z,6.31
2022-11-28T07:03:40.066Z,6.37
2022-11-28T07:06:44.716Z,6.50
2022-11-28T07:09:46.749Z,6.77
2022-11-28T07:12:59.292Z,6.95
2022-11-28T07:16:03.414Z,6.66
2022-11-28T07:19:05.772Z,6.29
2022-11-28T07:22:07.817Z,6.33
2022-11-28T07:25:10.869Z,6.51
2022-11-28T07:28:12.921Z,6.59
2022-11-28T07:31:31.819Z,6.46
2022-11-28T07:34:34.256Z,6.47
2022-11-28T07:37:36.517Z,6.52
2022-11-28T07:40:38.568Z,6.75
2022-11-28T07:43:43.243Z,6.83
2022-11-28T07:46:45.863Z,6.59
2022-11-28T07:49:47.931Z,6.63
2022-11-28T07:52:51.726Z,6.72
2022-11-28T07:55:53.847Z,6.50
2022-11-28T07:58:59.082Z,6.06
2022-11-28T08:02:04.326Z,6.43
2022-11-28T08:05:06.981Z,6.46
2022-11-28T08:08:09.198Z,6.50
2022-11-28T08:11:11.491Z,6.51
2022-11-28T08:14:14.360Z,6.52
2022-11-28T08:17:16.681Z,6.64
2022-11-28T08:20:18.908Z,6.73
2022-11-28T08:23:21.044Z,5.95
2022-11-28T08:26:28.899Z,5.58
2022-11-28T08:29:32.394Z,5.73
2022-11-28T08:32:34.432Z,5.92
2022-11-28T08:35:39.659Z,6.35
2022-11-28T08:38:47.048Z,6.59
2022-11-28T08:41:59.700Z,6.74
2022-11-28T08:45:01.767Z,6.68
2022-11-28T08:48:05.040Z,6.58
2022-11-28T08:51:07.644Z,6.57
2022-11-28T08:54:09.760Z,6.51
2022-11-28T08:57:12.227Z,6.24
2022-11-28T09:00:15.469Z,6.17
2022-11-28T09:03:19.379Z,6.15
2022-11-28T09:06:21.882Z,6.27
2022-11-28T09:09:24.015Z,6.31
2022-11-28T09:12:26.146Z,6.60
2022-11-28T09:15:28.268Z,6.81
2022-11-28T09:18:30.393Z,6.95
2022-11-28T09:21:32.626Z,7.04
2022-11-28T09:24:34.740Z,7.08
2022-11-28T09:27:36.764Z,6.81
2022-11-28T09:30:39.030Z,7.12
2022-11-28T09:33:41.322Z,7.16
2022-11-28T09:36:43.436Z,7.45
2022-11-28T09:40:11.418Z,7.35
2022-11-28T09:43:31.617Z,7.46
2022-11-28T09:46:35.119Z,7.36
2022-11-28T09:49:43.503Z,7.46
2022-11-28T09:53:06.083Z,7.76
2022-11-28T09:56:17.972Z,7.19
2022-11-28T09:59:22.594Z,7.65
2022-11-28T10:03:02.264Z,7.94
2022-11-28T10:06:16.041Z,7.51
2022-11-28T10:09:50.664Z,7.48
2022-11-28T10:13:10.943Z,7.63
2022-11-28T10:16:39.400Z,8.11
2022-11-28T10:19:55.088Z,8.69
2022-11-28T10:23:38.626Z,8.85
2022-11-28T10:26:44.748Z,8.99
2022-11-28T10:29:58.158Z,7.78
2022-11-28T10:33:25.872Z,8.09
2022-11-28T10:37:21.897Z,9.17
2022-11-28T10:40:50.482Z,9.33
2022-11-28T10:44:04.636Z,8.04
2022-11-28T10:47:25.628Z,7.92
2022-11-28T10:50:58.098Z,7.51
2022-11-28T10:54:21.036Z,7.43
2022-11-28T10:57:27.120Z,7.63
2022-11-28T11:00:29.173Z,7.81
2022-11-28T11:03:32.936Z,7.98
2022-11-28T11:06:47.633Z,7.64
2022-11-28T11:10:20.912Z,7.78
2022-11-28T11:13:34.520Z,8.05
2022-11-28T11:16:53.877Z,7.40
2022-11-28T11:19:56.732Z,7.63
2022-11-28T11:23:20.232Z,7.02
2022-11-28T11:26:27.745Z,6.95
2022-11-28T11:29:30.903Z,7.25
2022-11-28T11:32:33.021Z,7.40
2022-11-28T11:35:36.575Z,7.52
2022-11-28T11:38:38.676Z,7.81
2022-11-28T11:41:51.769Z,7.61
2022-11-28T11:44:54.209Z,7.68
2022-11-28T11:47:56.532Z,8.02
2022-11-28T11:50:58.602Z,8.05
2022-11-28T11:54:14.427Z,7.45
2022-11-28T11:57:36.131Z,7.57
2022-11-28T12:00:39.643Z,7.80
2022-11-28T12:03:52.351Z,8.02
2022-11-28T12:06:54.545Z,7.86
2022-11-28T12:09:57.763Z,7.77
2022-11-28T12:13:02.805Z,7.37
2022-11-28T12:16:43.104Z,7.80
2022-11-28T12:20:01.672Z,8.55
2022-11-28T12:23:29.566Z,8.98
2022-11-28T12:26:55.253Z,8.79
2022-11-28T12:30:24.310Z,9.54
2022-11-28T12:34:11.890Z,9.19
2022-11-28T12:37:29.429Z,8.81
2022-11-28T12:41:10.844Z,7.34
2022-11-28T12:44:36.126Z,8.20
2022-11-28T12:48:03.763Z,8.89
2022-11-28T12:51:12.384Z,8.13
2022-11-28T12:54:48.190Z,7.79
2022-11-28T12:58:14.678Z,7.58
2022-11-28T13:02:12.678Z,7.69
2022-11-28T13:05:31.672Z,7.47
2022-11-28T13:09:00.993Z,7.47
2022-11-28T13:12:30.389Z,7.32
2022-11-28T13:15:59.838Z,7.51
2022-11-28T13:19:25.856Z,7.65
2022-11-28T13:22:45.551Z,7.87
2022-11-28T13:26:05.862Z,8.33
2022-11-28T13:29:44.127Z,8.15
2022-11-28T13:32:53.632Z,8.59
2022-11-28T13:35:55.665Z,8.88
2022-11-28T13:39:18.636Z,8.65
2022-11-28T13:46:06.762Z,8.66
2022-11-28T13:49:21.003Z,8.14
2022-11-28T13:52:26.317Z,8.15
2022-11-28T13:55:52.112Z,8.43
2022-11-28T13:59:01.175Z,8.15
2022-11-28T14:02:13.446Z,7.78
2022-11-28T14:05:32.347Z,7.96
2022-11-28T14:08:37.079Z,7.84
2022-11-28T14:12:03.292Z,7.48
2022-11-28T14:15:22.322Z,7.74
2022-11-28T14:18:58.030Z,7.98
2022-11-28T14:22:18.455Z,7.18
2022-11-28T14:25:31.717Z,7.23
2022-11-28T14:28:40.180Z,7.11
2022-11-28T14:32:06.704Z,7.21
2022-11-28T14:35:49.981Z,7.51
2022-11-28T14:39:30.913Z,7.46
2022-11-28T14:42:59.662Z,6.95
2022-11-28T14:46:26.966Z,7.26
2022-11-28T14:49:29.549Z,7.23
2022-11-28T14:52:42.761Z,7.29
2022-11-28T14:55:47.634Z,7.37
2022-11-28T14:58:51.272Z,7.67
2022-11-28T15:02:02.350Z,7.37
2022-11-28T15:05:24.884Z,6.16
2022-11-28T15:08:46.341Z,6.24
2022-11-28T15:12:25.837Z,6.38
2022-11-28T15:15:29.893Z,6.42
2022-11-28T15:18:32.281Z,6.31
2022-11-28T15:21:45.820Z,6.92
2022-11-28T15:24:52.083Z,7.34
2022-11-28T15:27:55.445Z,7.62
2022-11-28T15:30:59.034Z,7.79
2022-11-28T15:34:01.068Z,7.82
2022-11-28T15:37:15.414Z,7.83
2022-11-28T15:40:25.254Z,7.11
2022-11-28T15:43:27.717Z,7.37
2022-11-28T15:46:33.863Z,7.43
2022-11-28T15:49:38.541Z,7.29
2022-11-28T15:52:40.693Z,6.93
2022-11-28T15:55:43.073Z,7.16
2022-11-28T15:58:45.437Z,7.14
2022-11-28T16:01:47.569Z,7.31
2022-11-28T16:05:04.648Z,7.51
2022-11-28T16:08:28.748Z,7.48
2022-11-28T16:11:31.427Z,6.99
2022-11-28T16:14:35.156Z,7.27
2022-11-28T16:17:39.876Z,7.27
2022-11-28T16:20:42.003Z,7.09
2022-11-28T16:23:44.140Z,6.97
2022-11-28T16:27:03.964Z,7.30
2022-11-28T16:30:33.529Z,7.41
2022-11-28T16:33:38.390Z,6.98
2022-11-28T16:36:40.581Z,6.61
2022-11-28T16:39:42.840Z,6.88
2022-11-28T16:42:55.792Z,7.08
2022-11-28T16:46:03.365Z,6.92
2022-11-28T16:49:08.184Z,7.11
2022-11-28T16:52:22.181Z,7.14
2022-11-28T16:55:33.710Z,6.87
2022-11-28T16:58:35.729Z,7.02
2022-11-28T17:01:37.909Z,6.74
2022-11-28T17:04:40.061Z,5.59
2022-11-28T17:07:42.159Z,5.69
2022-11-28T17:10:44.200Z,6.23
2022-11-28T17:13:46.310Z,6.27
2022-11-28T17:16:48.452Z,6.55
2022-11-28T17:19:50.716Z,6.55
2022-11-28T17:22:56.371Z,5.89
2022-11-28T17:25:58.525Z,5.63
2022-11-28T17:29:00.693Z,6.05
2022-11-28T17:32:02.789Z,6.44
2022-11-28T17:35:12.932Z,6.29
2022-11-28T17:38:15.172Z,6.26
2022-11-28T17:41:17.215Z,6.12
2022-11-28T17:44:22.494Z,6.05
2022-11-28T17:47:24.526Z,6.22
2022-11-28T17:50:27.740Z,6.23
2022-11-28T17:53:30.215Z,6.31
2022-11-28T17:56:32.569Z,6.15
2022-11-28T17:59:36.048Z,6.20
2022-11-28T18:02:38.157Z,5.73
2022-11-28T18:05:42.115Z,5.99
2022-11-28T18:08:47.775Z,5.91
2022-11-28T18:11:49.869Z,5.82
2022-11-28T18:14:51.998Z,5.68
2022-11-28T18:17:54.901Z,5.87
2022-11-28T18:20:57.277Z,5.66
2022-11-28T18:23:59.599Z,5.85
2022-11-28T18:27:01.677Z,5.87
2022-11-28T18:30:04.723Z,5.82
2022-11-28T18:33:07.285Z,5.43
2022-11-28T18:36:17.200Z,5.88
2022-11-28T18:39:19.297Z,6.28
2022-11-28T18:42:21.409Z,6.59
2022-11-28T18:45:23.704Z,6.52
2022-11-28T18:48:25.890Z,6.35
2022-11-28T18:51:37.213Z,6.45
2022-11-28T18:54:40.289Z,6.79
2022-11-28T18:57:42.430Z,6.71
2022-11-28T19:00:44.524Z,7.03
2022-11-28T19:03:57.547Z,6.65
2022-11-28T19:07:01.525Z,6.69
2022-11-28T19:10:03.755Z,6.49
2022-11-28T19:13:06.012Z,6.45
2022-11-28T19:16:14.196Z,6.56
2022-11-28T19:19:16.793Z,6.86
2022-11-28T19:22:18.957Z,6.60
2022-11-28T19:25:21.129Z,6.72
2022-11-28T19:28:23.386Z,6.72
2022-11-28T19:31:28.142Z,6.88
2022-11-28T19:34:30.320Z,6.66
2022-11-28T19:37:32.398Z,6.39
2022-11-28T19:40:35.201Z,6.80
2022-11-28T19:43:37.447Z,7.08
2022-11-28T19:46:39.926Z,7.07
2022-11-28T19:49:42.767Z,6.86
2022-11-28T19:52:45.044Z,7.06
2022-11-28T19:55:49.032Z,6.92
2022-11-28T19:58:51.492Z,6.82
2022-11-28T20:01:53.932Z,6.54
2022-11-28T20:04:57.451Z,6.81
2022-11-28T20:08:00.512Z,6.97
2022-11-28T20:11:15.039Z,6.98
2022-11-28T20:14:18.878Z,6.91
2022-11-28T20:17:20.987Z,6.83
2022-11-28T20:20:23.363Z,6.79
2022-11-28T20:23:26.124Z,6.90
2022-11-28T20:26:29.640Z,7.12
2022-11-28T20:29:33.319Z,7.14
2022-11-28T20:32:35.502Z,7.16
2022-11-28T20:35:37.597Z,7.11
2022-11-28T20:38:39.753Z,6.77
2022-11-28T20:41:41.872Z,7.01
2022-11-28T20:44:43.904Z,6.83
2022-11-28T20:47:49.773Z,6.14
2022-11-28T20:50:52.200Z,6.53
2022-11-28T20:53:54.962Z,6.22
2022-11-28T21:00:23.587Z,6.80
2022-11-28T21:03:28.578Z,6.90
2022-11-28T21:06:30.844Z,6.42
2022-11-28T21:09:32.949Z,6.65
2022-11-28T21:12:34.996Z,6.32
2022-11-28T21:15:42.524Z,6.15
2022-11-28T21:18:44.966Z,6.15
2022-11-28T21:21:47.016Z,6.45
2022-11-28T21:24:51.224Z,6.96
2022-11-28T21:27:53.243Z,7.09
2022-11-28T21:30:55.298Z,6.91
2022-11-28T21:33:58.292Z,6.74
2022-11-28T21:37:00.567Z,6.68
2022-11-28T21:40:02.659Z,6.90
2022-11-28T21:43:04.693Z,7.00
2022-11-28T21:46:07.358Z,6.91
2022-11-28T21:49:09.574Z,7.40
2022-11-28T21:52:16.057Z,7.49
2022-11-28T21:55:19.042Z,7.25
2022-11-28T21:58:26.494Z,7.19
2022-11-28T22:01:28.900Z,7.26
2022-11-28T22:04:31.121Z,6.93
2022-11-28T22:07:36.178Z,7.18
2022-11-28T22:10:38.338Z,7.43
2022-11-28T22:13:42.486Z,7.06
2022-11-28T22:16:44.575Z,7.19
2022-11-28T22:19:46.702Z,6.99
2022-11-28T22:22:49.860Z,6.75
2022-11-28T22:25:52.561Z,6.66
2022-11-28T22:28:54.962Z,6.72
2022-11-28T22:31:58.523Z,6.51
2022-11-28T22:35:02.416Z,6.30
2022-11-28T22:38:04.532Z,6.28
2022-11-28T22:41:11.069Z,6.38
2022-11-28T22:44:13.297Z,6.39
2022-11-28T22:47:15.429Z,6.73
2022-11-28T22:50:17.842Z,6.51
2022-11-28T22:53:19.902Z,6.42
2022-11-28T22:56:22.391Z,6.73
2022-11-28T22:59:24.469Z,6.59
2022-11-28T23:02:26.612Z,6.52
2022-11-28T23:05:28.809Z,6.40
2022-11-28T23:08:30.891Z,6.09
2022-11-28T23:11:34.640Z,5.81
2022-11-28T23:14:36.864Z,6.08
2022-11-28T23:17:39.018Z,6.51
2022-11-28T23:20:41.357Z,7.05
2022-11-28T23:23:46.374Z,7.09
2022-11-28T23:26:48.777Z,7.30
2022-11-28T23:29:51.068Z,7.05
2022-11-28T23:32:53.141Z,6.81
2022-11-28T23:35:55.588Z,6.69
2022-11-28T23:38:59.736Z,6.58
2022-11-28T23:42:01.781Z,6.81
2022-11-28T23:45:04.225Z,6.95
2022-11-28T23:48:06.452Z,6.90
2022-11-28T23:51:08.558Z,6.94
2022-11-28T23:54:11.116Z,7.02
2022-11-28T23:57:13.194Z,6.92
